sensor_id;sensor_type;location;lat;lon;timestamp;pressure;altitude;pressure_sealevel;temperature;humidity
40708;BME280;26392;42.696;23.350;2022-12-07T00:01:17;95324.53;;;6.36;100.00
40708;BME280;26392;42.696;23.350;2022-12-07T00:03:44;95322.94;;;6.46;100.00
40708;BME280;26392;42.696;23.350;2022-12-07T00:06:12;95329.78;;;6.49;100.00
40708;BME280;26392;42.696;23.350;2022-12-07T00:08:38;95318.03;;;6.55;100.00
40708;BME280;26392;42.696;23.350;2022-12-07T00:11:09;95326.09;;;6.62;100.00
40708;BME280;26392;42.696;23.350;2022-12-07T00:13:35;95320.06;;;6.60;100.00
40708;BME280;26392;42.696;23.350;2022-12-07T00:16:07;95317.34;;;6.60;100.00
40708;BME280;26392;42.696;23.350;2022-12-07T00:18:33;95315.47;;;6.60;100.00
40708;BME280;26392;42.696;23.350;2022-12-07T00:21:04;95311.84;;;6.66;100.00
40708;BME280;26392;42.696;23.350;2022-12-07T00:23:30;95322.91;;;6.65;100.00
40708;BME280;26392;42.696;23.350;2022-12-07T00:25:55;95322.25;;;6.69;100.00
40708;BME280;26392;42.696;23.350;2022-12-07T00:28:21;95316.22;;;6.67;100.00
40708;BME280;26392;42.696;23.350;2022-12-07T00:30:46;95323.38;;;6.62;100.00
40708;BME280;26392;42.696;23.350;2022-12-07T00:33:12;95329.47;;;6.57;100.00
40708;BME280;26392;42.696;23.350;2022-12-07T00:35:37;95325.47;;;6.60;100.00
40708;BME280;26392;42.696;23.350;2022-12-07T00:38:02;95331.84;;;6.65;100.00
40708;BME280;26392;42.696;23.350;2022-12-07T00:40:28;95324.59;;;6.78;100.00
40708;BME280;26392;42.696;23.350;2022-12-07T00:42:53;95323.75;;;6.77;100.00
40708;BME280;26392;42.696;23.350;2022-12-07T00:45:18;95330.84;;;6.78;100.00
40708;BME280;26392;42.696;23.350;2022-12-07T00:47:44;95321.16;;;6.70;100.00
40708;BME280;26392;42.696;23.350;2022-12-07T00:50:09;95323.63;;;6.72;100.00
40708;BME280;26392;42.696;23.350;2022-12-07T00:52:35;95318.09;;;6.67;100.00
40708;BME280;26392;42.696;23.350;2022-12-07T00:55:00;95300.50;;;6.58;100.00
40708;BME280;26392;42.696;23.350;2022-12-07T00:57:25;95312.63;;;6.55;100.00
40708;BME280;26392;42.696;23.350;2022-12-07T00:59:51;95311.22;;;6.53;100.00
40708;BME280;26392;42.696;23.350;2022-12-07T01:02:20;95307.47;;;6.54;100.00
40708;BME280;26392;42.696;23.350;2022-12-07T01:04:46;95306.53;;;6.60;100.00
40708;BME280;26392;42.696;23.350;2022-12-07T01:07:11;95304.75;;;6.54;100.00
40708;BME280;26392;42.696;23.350;2022-12-07T01:09:36;95309.59;;;6.63;100.00
40708;BME280;26392;42.696;23.350;2022-12-07T01:12:02;95309.84;;;6.62;100.00
40708;BME280;26392;42.696;23.350;2022-12-07T01:14:27;95311.81;;;6.55;100.00
40708;BME280;26392;42.696;23.350;2022-12-07T01:16:53;95309.25;;;6.60;100.00
40708;BME280;26392;42.696;23.350;2022-12-07T01:19:18;95313.59;;;6.61;100.00
40708;BME280;26392;42.696;23.350;2022-12-07T01:21:44;95312.09;;;6.65;100.00
40708;BME280;26392;42.696;23.350;2022-12-07T01:24:10;95293.75;;;6.67;100.00
40708;BME280;26392;42.696;23.350;2022-12-07T01:26:35;95291.34;;;6.59;100.00
40708;BME280;26392;42.696;23.350;2022-12-07T01:29:01;95291.84;;;6.67;100.00
40708;BME280;26392;42.696;23.350;2022-12-07T01:31:28;95300.06;;;6.61;100.00
40708;BME280;26392;42.696;23.350;2022-12-07T01:33:56;95292.19;;;6.59;100.00
40708;BME280;26392;42.696;23.350;2022-12-07T01:36:30;95287.09;;;6.51;100.00
40708;BME280;26392;42.696;23.350;2022-12-07T01:38:58;95290.41;;;6.53;100.00
40708;BME280;26392;42.696;23.350;2022-12-07T01:41:26;95292.31;;;6.64;100.00
40708;BME280;26392;42.696;23.350;2022-12-07T01:44:27;95298.28;;;6.55;100.00
40708;BME280;26392;42.696;23.350;2022-12-07T01:47:04;95300.72;;;6.44;100.00
40708;BME280;26392;42.696;23.350;2022-12-07T01:49:40;95299.00;;;6.32;100.00
40708;BME280;26392;42.696;23.350;2022-12-07T01:54:46;95293.25;;;6.58;100.00
40708;BME280;26392;42.696;23.350;2022-12-07T01:57:14;95286.50;;;6.61;100.00
40708;BME280;26392;42.696;23.350;2022-12-07T01:59:41;95284.06;;;6.59;100.00
40708;BME280;26392;42.696;23.350;2022-12-07T02:02:13;95270.75;;;6.58;100.00
40708;BME280;26392;42.696;23.350;2022-12-07T02:04:43;95269.84;;;6.64;100.00
40708;BME280;26392;42.696;23.350;2022-12-07T02:07:08;95273.38;;;6.64;100.00
40708;BME280;26392;42.696;23.350;2022-12-07T02:09:34;95274.03;;;6.60;100.00
40708;BME280;26392;42.696;23.350;2022-12-07T02:11:59;95274.50;;;6.57;100.00
40708;BME280;26392;42.696;23.350;2022-12-07T02:14:25;95277.91;;;6.52;100.00
40708;BME280;26392;42.696;23.350;2022-12-07T02:17:07;95275.94;;;6.59;100.00
40708;BME280;26392;42.696;23.350;2022-12-07T02:30:59;95267.69;;;6.66;100.00
40708;BME280;26392;42.696;23.350;2022-12-07T02:33:35;95257.13;;;6.64;100.00
40708;BME280;26392;42.696;23.350;2022-12-07T02:36:06;95256.19;;;6.70;100.00
40708;BME280;26392;42.696;23.350;2022-12-07T02:38:45;95260.75;;;6.58;100.00
40708;BME280;26392;42.696;23.350;2022-12-07T02:41:20;95262.13;;;6.49;100.00
40708;BME280;26392;42.696;23.350;2022-12-07T02:44:07;95262.78;;;6.33;100.00
40708;BME280;26392;42.696;23.350;2022-12-07T02:46:41;95258.78;;;6.35;100.00
40708;BME280;26392;42.696;23.350;2022-12-07T02:49:07;95265.16;;;6.41;100.00
40708;BME280;26392;42.696;23.350;2022-12-07T02:51:39;95260.19;;;6.38;100.00
40708;BME280;26392;42.696;23.350;2022-12-07T02:54:12;95247.13;;;6.35;100.00
40708;BME280;26392;42.696;23.350;2022-12-07T03:02:14;95257.91;;;6.23;100.00
40708;BME280;26392;42.696;23.350;2022-12-07T03:07:43;95247.91;;;6.23;100.00
40708;BME280;26392;42.696;23.350;2022-12-07T03:16:05;95242.63;;;6.17;100.00
40708;BME280;26392;42.696;23.350;2022-12-07T03:18:38;95233.75;;;6.10;100.00
40708;BME280;26392;42.696;23.350;2022-12-07T03:21:09;95237.56;;;6.20;100.00
40708;BME280;26392;42.696;23.350;2022-12-07T03:23:38;95235.63;;;6.09;100.00
40708;BME280;26392;42.696;23.350;2022-12-07T03:26:08;95237.53;;;6.09;100.00
40708;BME280;26392;42.696;23.350;2022-12-07T03:28:39;95226.66;;;5.97;100.00
40708;BME280;26392;42.696;23.350;2022-12-07T03:31:23;95247.13;;;6.04;100.00
40708;BME280;26392;42.696;23.350;2022-12-07T03:33:59;95249.25;;;6.02;100.00
40708;BME280;26392;42.696;23.350;2022-12-07T03:36:31;95252.47;;;5.93;100.00
40708;BME280;26392;42.696;23.350;2022-12-07T03:39:08;95253.31;;;5.93;100.00
40708;BME280;26392;42.696;23.350;2022-12-07T03:41:38;95254.06;;;6.00;100.00
40708;BME280;26392;42.696;23.350;2022-12-07T03:44:05;95244.44;;;6.04;100.00
40708;BME280;26392;42.696;23.350;2022-12-07T03:52:43;95250.00;;;5.54;100.00
40708;BME280;26392;42.696;23.350;2022-12-07T03:55:32;95249.16;;;5.54;100.00
40708;BME280;26392;42.696;23.350;2022-12-07T03:58:04;95243.84;;;5.47;100.00
40708;BME280;26392;42.696;23.350;2022-12-07T04:00:31;95229.81;;;5.38;100.00
40708;BME280;26392;42.696;23.350;2022-12-07T04:02:57;95234.69;;;5.30;100.00
40708;BME280;26392;42.696;23.350;2022-12-07T04:05:23;95242.19;;;5.28;100.00
40708;BME280;26392;42.696;23.350;2022-12-07T04:07:48;95240.63;;;5.38;100.00
40708;BME280;26392;42.696;23.350;2022-12-07T04:10:14;95237.16;;;5.31;100.00
40708;BME280;26392;42.696;23.350;2022-12-07T04:12:39;95238.06;;;5.25;100.00
40708;BME280;26392;42.696;23.350;2022-12-07T04:15:05;95232.00;;;5.30;100.00
40708;BME280;26392;42.696;23.350;2022-12-07T04:17:31;95231.53;;;5.33;100.00
40708;BME280;26392;42.696;23.350;2022-12-07T04:19:56;95229.13;;;5.25;100.00
40708;BME280;26392;42.696;23.350;2022-12-07T04:22:22;95233.44;;;5.32;100.00
40708;BME280;26392;42.696;23.350;2022-12-07T04:24:47;95229.38;;;5.42;100.00
40708;BME280;26392;42.696;23.350;2022-12-07T04:27:13;95238.59;;;5.52;100.00
40708;BME280;26392;42.696;23.350;2022-12-07T04:29:38;95233.72;;;5.61;100.00
40708;BME280;26392;42.696;23.350;2022-12-07T04:32:03;95248.81;;;5.69;100.00
40708;BME280;26392;42.696;23.350;2022-12-07T04:34:29;95249.84;;;5.68;100.00
40708;BME280;26392;42.696;23.350;2022-12-07T04:36:54;95233.34;;;5.57;100.00
40708;BME280;26392;42.696;23.350;2022-12-07T04:39:27;95236.19;;;5.63;100.00
40708;BME280;26392;42.696;23.350;2022-12-07T04:41:53;95226.66;;;5.60;100.00
40708;BME280;26392;42.696;23.350;2022-12-07T04:44:20;95249.78;;;5.74;100.00
40708;BME280;26392;42.696;23.350;2022-12-07T04:46:46;95241.06;;;5.54;100.00
40708;BME280;26392;42.696;23.350;2022-12-07T04:49:12;95250.84;;;5.55;100.00
40708;BME280;26392;42.696;23.350;2022-12-07T04:51:38;95258.72;;;5.56;100.00
40708;BME280;26392;42.696;23.350;2022-12-07T04:54:04;95252.50;;;5.56;100.00
40708;BME280;26392;42.696;23.350;2022-12-07T04:56:29;95247.16;;;5.49;100.00
40708;BME280;26392;42.696;23.350;2022-12-07T04:58:55;95250.38;;;5.39;100.00
40708;BME280;26392;42.696;23.350;2022-12-07T05:01:21;95252.88;;;5.41;100.00
40708;BME280;26392;42.696;23.350;2022-12-07T05:03:47;95253.53;;;5.36;100.00
40708;BME280;26392;42.696;23.350;2022-12-07T05:06:13;95253.53;;;5.36;100.00
40708;BME280;26392;42.696;23.350;2022-12-07T05:08:38;95251.94;;;5.29;100.00
40708;BME280;26392;42.696;23.350;2022-12-07T05:11:05;95249.31;;;5.22;100.00
40708;BME280;26392;42.696;23.350;2022-12-07T05:13:31;95245.78;;;5.22;100.00
40708;BME280;26392;42.696;23.350;2022-12-07T05:15:57;95250.75;;;5.25;100.00
40708;BME280;26392;42.696;23.350;2022-12-07T05:18:23;95254.06;;;5.27;100.00
40708;BME280;26392;42.696;23.350;2022-12-07T05:20:48;95252.19;;;5.27;100.00
40708;BME280;26392;42.696;23.350;2022-12-07T05:23:14;95247.97;;;5.31;100.00
40708;BME280;26392;42.696;23.350;2022-12-07T05:25:39;95248.41;;;5.28;100.00
40708;BME280;26392;42.696;23.350;2022-12-07T05:28:05;95245.06;;;5.33;100.00
40708;BME280;26392;42.696;23.350;2022-12-07T05:30:31;95253.38;;;5.31;100.00
40708;BME280;26392;42.696;23.350;2022-12-07T05:32:57;95250.28;;;5.28;100.00
40708;BME280;26392;42.696;23.350;2022-12-07T05:35:23;95253.59;;;5.30;100.00
40708;BME280;26392;42.696;23.350;2022-12-07T05:37:48;95251.66;;;5.37;100.00
40708;BME280;26392;42.696;23.350;2022-12-07T05:40:14;95253.03;;;5.46;100.00
40708;BME280;26392;42.696;23.350;2022-12-07T05:42:40;95254.66;;;5.47;100.00
40708;BME280;26392;42.696;23.350;2022-12-07T05:45:07;95252.13;;;5.52;100.00
40708;BME280;26392;42.696;23.350;2022-12-07T05:47:32;95251.66;;;5.55;100.00
40708;BME280;26392;42.696;23.350;2022-12-07T05:49:58;95246.31;;;5.49;100.00
40708;BME280;26392;42.696;23.350;2022-12-07T05:52:23;95244.06;;;5.27;100.00
40708;BME280;26392;42.696;23.350;2022-12-07T05:54:49;95251.03;;;5.16;100.00
40708;BME280;26392;42.696;23.350;2022-12-07T05:57:14;95224.38;;;5.02;100.00
40708;BME280;26392;42.696;23.350;2022-12-07T05:59:40;95239.72;;;5.01;100.00
40708;BME280;26392;42.696;23.350;2022-12-07T06:02:08;95248.06;;;5.00;100.00
40708;BME280;26392;42.696;23.350;2022-12-07T06:04:37;95246.13;;;5.07;100.00
40708;BME280;26392;42.696;23.350;2022-12-07T06:07:04;95243.22;;;5.08;100.00
40708;BME280;26392;42.696;23.350;2022-12-07T06:09:30;95237.59;;;5.10;100.00
40708;BME280;26392;42.696;23.350;2022-12-07T06:11:57;95244.72;;;5.23;100.00
40708;BME280;26392;42.696;23.350;2022-12-07T06:14:41;95245.06;;;5.33;100.00
40708;BME280;26392;42.696;23.350;2022-12-07T06:17:07;95248.13;;;5.36;100.00
40708;BME280;26392;42.696;23.350;2022-12-07T06:19:32;95255.72;;;5.46;100.00
40708;BME280;26392;42.696;23.350;2022-12-07T06:21:58;95243.84;;;5.47;100.00
40708;BME280;26392;42.696;23.350;2022-12-07T06:24:24;95241.97;;;5.48;100.00
40708;BME280;26392;42.696;23.350;2022-12-07T06:26:50;95239.88;;;5.50;100.00
40708;BME280;26392;42.696;23.350;2022-12-07T06:29:16;95245.00;;;5.58;100.00
40708;BME280;26392;42.696;23.350;2022-12-07T06:31:42;95249.41;;;5.71;100.00
40708;BME280;26392;42.696;23.350;2022-12-07T06:34:16;95251.19;;;5.77;100.00
40708;BME280;26392;42.696;23.350;2022-12-07T06:36:42;95256.06;;;5.87;100.00
40708;BME280;26392;42.696;23.350;2022-12-07T06:39:08;95253.88;;;5.77;100.00
40708;BME280;26392;42.696;23.350;2022-12-07T06:41:35;95262.31;;;5.87;100.00
40708;BME280;26392;42.696;23.350;2022-12-07T06:44:02;95261.41;;;5.93;100.00
40708;BME280;26392;42.696;23.350;2022-12-07T06:46:27;95266.22;;;5.91;100.00
40708;BME280;26392;42.696;23.350;2022-12-07T06:48:53;95262.31;;;5.87;100.00
40708;BME280;26392;42.696;23.350;2022-12-07T06:51:18;95265.47;;;5.84;100.00
40708;BME280;26392;42.696;23.350;2022-12-07T06:53:44;95267.28;;;5.72;100.00
40708;BME280;26392;42.696;23.350;2022-12-07T06:56:09;95257.19;;;5.79;100.00
40708;BME280;26392;42.696;23.350;2022-12-07T06:58:34;95266.38;;;5.78;100.00
40708;BME280;26392;42.696;23.350;2022-12-07T07:01:00;95264.34;;;5.92;100.00
40708;BME280;26392;42.696;23.350;2022-12-07T07:03:25;95274.63;;;6.01;100.00
40708;BME280;26392;42.696;23.350;2022-12-07T07:05:51;95270.44;;;6.05;100.00
40708;BME280;26392;42.696;23.350;2022-12-07T07:08:16;95259.00;;;6.03;100.00
40708;BME280;26392;42.696;23.350;2022-12-07T07:10:42;95254.94;;;6.13;100.00
40708;BME280;26392;42.696;23.350;2022-12-07T07:13:08;95259.31;;;6.14;100.00
40708;BME280;26392;42.696;23.350;2022-12-07T07:15:34;95270.94;;;6.14;100.00
40708;BME280;26392;42.696;23.350;2022-12-07T07:17:59;95270.94;;;6.14;100.00
40708;BME280;26392;42.696;23.350;2022-12-07T07:20:25;95266.25;;;6.21;100.00
40708;BME280;26392;42.696;23.350;2022-12-07T07:22:54;95266.81;;;6.12;100.00
40708;BME280;26392;42.696;23.350;2022-12-07T07:25:19;95259.47;;;6.00;100.00
40708;BME280;26392;42.696;23.350;2022-12-07T07:27:44;95265.69;;;6.01;100.00
40708;BME280;26392;42.696;23.350;2022-12-07T07:30:10;95266.88;;;5.68;100.00
40708;BME280;26392;42.696;23.350;2022-12-07T07:32:36;95275.53;;;5.58;100.00
40708;BME280;26392;42.696;23.350;2022-12-07T07:35:02;95277.34;;;5.46;100.00
40708;BME280;26392;42.696;23.350;2022-12-07T07:37:27;95279.16;;;5.52;100.00
40708;BME280;26392;42.696;23.350;2022-12-07T07:39:53;95285.91;;;5.61;100.00
40708;BME280;26392;42.696;23.350;2022-12-07T07:42:18;95276.78;;;5.93;100.00
40708;BME280;26392;42.696;23.350;2022-12-07T07:44:43;95277.78;;;6.17;100.00
40708;BME280;26392;42.696;23.350;2022-12-07T07:47:09;95282.31;;;6.35;100.00
40708;BME280;26392;42.696;23.350;2022-12-07T07:49:34;95282.03;;;6.55;100.00
40708;BME280;26392;42.696;23.350;2022-12-07T07:52:00;95272.06;;;6.67;100.00
40708;BME280;26392;42.696;23.350;2022-12-07T07:54:25;95264.19;;;6.77;100.00
40708;BME280;26392;42.696;23.350;2022-12-07T07:56:52;95268.31;;;6.80;100.00
40708;BME280;26392;42.696;23.350;2022-12-07T07:59:17;95269.88;;;6.87;100.00
40708;BME280;26392;42.696;23.350;2022-12-07T08:01:43;95263.66;;;6.99;100.00
40708;BME280;26392;42.696;23.350;2022-12-07T08:04:08;95264.72;;;6.98;100.00
40708;BME280;26392;42.696;23.350;2022-12-07T08:06:34;95268.00;;;7.00;100.00
40708;BME280;26392;42.696;23.350;2022-12-07T08:08:59;95270.84;;;7.05;100.00
40708;BME280;26392;42.696;23.350;2022-12-07T08:11:24;95269.41;;;7.14;100.00
40708;BME280;26392;42.696;23.350;2022-12-07T08:13:50;95264.50;;;7.23;100.00
40708;BME280;26392;42.696;23.350;2022-12-07T08:16:16;95266.50;;;7.15;100.00
40708;BME280;26392;42.696;23.350;2022-12-07T08:18:42;95256.94;;;7.13;100.00
40708;BME280;26392;42.696;23.350;2022-12-07T08:21:12;95262.00;;;6.98;100.00
40708;BME280;26392;42.696;23.350;2022-12-07T08:23:38;95269.41;;;6.90;100.00
40708;BME280;26392;42.696;23.350;2022-12-07T08:26:05;95264.94;;;6.96;100.00
40708;BME280;26392;42.696;23.350;2022-12-07T08:28:31;95264.09;;;6.84;100.00
40708;BME280;26392;42.696;23.350;2022-12-07T08:31:05;95256.41;;;6.69;100.00
40708;BME280;26392;42.696;23.350;2022-12-07T08:33:30;95261.13;;;6.62;100.00
40708;BME280;26392;42.696;23.350;2022-12-07T08:36:04;95270.03;;;6.50;100.00
40708;BME280;26392;42.696;23.350;2022-12-07T08:38:30;95272.41;;;6.59;100.00
40708;BME280;26392;42.696;23.350;2022-12-07T08:40:56;95267.50;;;6.79;100.00
40708;BME280;26392;42.696;23.350;2022-12-07T08:43:22;95251.59;;;6.83;100.00
40708;BME280;26392;42.696;23.350;2022-12-07T08:45:54;95258.69;;;6.84;100.00
40708;BME280;26392;42.696;23.350;2022-12-07T08:48:24;95256.22;;;6.94;100.00
40708;BME280;26392;42.696;23.350;2022-12-07T08:50:50;95252.44;;;6.83;100.00
40708;BME280;26392;42.696;23.350;2022-12-07T08:53:16;95256.09;;;6.89;100.00
40708;BME280;26392;42.696;23.350;2022-12-07T08:55:44;95253.84;;;6.86;100.00
40708;BME280;26392;42.696;23.350;2022-12-07T08:58:10;95236.69;;;6.92;100.00
40708;BME280;26392;42.696;23.350;2022-12-07T09:00:35;95247.63;;;6.97;100.00
40708;BME280;26392;42.696;23.350;2022-12-07T09:03:01;95238.44;;;6.98;100.00
40708;BME280;26392;42.696;23.350;2022-12-07T09:05:26;95243.75;;;7.05;100.00
40708;BME280;26392;42.696;23.350;2022-12-07T09:07:55;95239.19;;;7.17;100.00
40708;BME280;26392;42.696;23.350;2022-12-07T09:10:23;95237.75;;;7.26;100.00
40708;BME280;26392;42.696;23.350;2022-12-07T09:12:49;95219.34;;;7.16;100.00
40708;BME280;26392;42.696;23.350;2022-12-07T09:15:14;95221.13;;;7.34;100.00
40708;BME280;26392;42.696;23.350;2022-12-07T09:17:40;95230.66;;;7.49;100.00
40708;BME280;26392;42.696;23.350;2022-12-07T09:20:06;95226.28;;;7.48;100.00
40708;BME280;26392;42.696;23.350;2022-12-07T09:22:32;95218.25;;;7.53;100.00
40708;BME280;26392;42.696;23.350;2022-12-07T09:24:58;95219.66;;;7.67;100.00
40708;BME280;26392;42.696;23.350;2022-12-07T09:27:23;95229.66;;;7.78;100.00
40708;BME280;26392;42.696;23.350;2022-12-07T09:29:49;95226.81;;;7.85;100.00
40708;BME280;26392;42.696;23.350;2022-12-07T09:32:14;95223.63;;;7.88;100.00
40708;BME280;26392;42.696;23.350;2022-12-07T09:34:40;95219.72;;;7.96;100.00
40708;BME280;26392;42.696;23.350;2022-12-07T09:37:05;95205.63;;;8.11;100.00
40708;BME280;26392;42.696;23.350;2022-12-07T09:39:32;95204.84;;;7.98;100.00
40708;BME280;26392;42.696;23.350;2022-12-07T09:41:59;95197.63;;;8.04;100.00
40708;BME280;26392;42.696;23.350;2022-12-07T09:44:28;95197.69;;;8.09;100.00
40708;BME280;26392;42.696;23.350;2022-12-07T09:46:54;95191.41;;;8.20;100.00
40708;BME280;26392;42.696;23.350;2022-12-07T09:49:23;95185.19;;;8.37;100.00
40708;BME280;26392;42.696;23.350;2022-12-07T09:54:36;95182.81;;;8.69;100.00
40708;BME280;26392;42.696;23.350;2022-12-07T09:57:05;95184.44;;;8.87;100.00
40708;BME280;26392;42.696;23.350;2022-12-07T09:59:30;95174.78;;;9.13;100.00
40708;BME280;26392;42.696;23.350;2022-12-07T10:02:23;95171.84;;;9.36;100.00
40708;BME280;26392;42.696;23.350;2022-12-07T10:04:49;95172.81;;;9.47;100.00
40708;BME280;26392;42.696;23.350;2022-12-07T10:07:15;95168.66;;;9.61;100.00
40708;BME280;26392;42.696;23.350;2022-12-07T10:09:40;95168.75;;;9.72;100.00
40708;BME280;26392;42.696;23.350;2022-12-07T10:12:11;95156.91;;;9.78;100.00
40708;BME280;26392;42.696;23.350;2022-12-07T10:14:39;95158.59;;;9.84;100.00
40708;BME280;26392;42.696;23.350;2022-12-07T10:17:37;95146.47;;;9.97;100.00
40708;BME280;26392;42.696;23.350;2022-12-07T10:25:22;95144.44;;;10.31;100.00
40708;BME280;26392;42.696;23.350;2022-12-07T10:27:59;95132.75;;;10.36;100.00
40708;BME280;26392;42.696;23.350;2022-12-07T10:30:25;95128.50;;;10.45;100.00
40708;BME280;26392;42.696;23.350;2022-12-07T10:32:51;95134.94;;;10.66;100.00
40708;BME280;26392;42.696;23.350;2022-12-07T10:35:26;95119.63;;;10.60;100.00
40708;BME280;26392;42.696;23.350;2022-12-07T10:37:57;95109.66;;;10.16;100.00
40708;BME280;26392;42.696;23.350;2022-12-07T10:40:30;95113.91;;;10.29;100.00
40708;BME280;26392;42.696;23.350;2022-12-07T10:48:22;95116.91;;;10.60;100.00
40708;BME280;26392;42.696;23.350;2022-12-07T10:51:21;95113.75;;;10.73;100.00
40708;BME280;26392;42.696;23.350;2022-12-07T10:54:12;95114.84;;;10.77;100.00
40708;BME280;26392;42.696;23.350;2022-12-07T11:15:43;95070.91;;;10.04;100.00
40708;BME280;26392;42.696;23.350;2022-12-07T11:28:44;95065.22;;;10.05;100.00
40708;BME280;26392;42.696;23.350;2022-12-07T11:34:04;95049.38;;;10.02;100.00
40708;BME280;26392;42.696;23.350;2022-12-07T11:36:44;95045.47;;;10.20;100.00
40708;BME280;26392;42.696;23.350;2022-12-07T11:41:49;95032.81;;;10.36;100.00
40708;BME280;26392;42.696;23.350;2022-12-07T11:47:25;95041.19;;;10.62;100.00
40708;BME280;26392;42.696;23.350;2022-12-07T11:49:57;95034.38;;;10.59;100.00
40708;BME280;26392;42.696;23.350;2022-12-07T11:52:32;95044.94;;;10.56;100.00
40708;BME280;26392;42.696;23.350;2022-12-07T11:55:06;95035.75;;;10.62;100.00
40708;BME280;26392;42.696;23.350;2022-12-07T11:57:44;95041.03;;;10.79;100.00
40708;BME280;26392;42.696;23.350;2022-12-07T12:00:16;95028.00;;;10.91;100.00
40708;BME280;26392;42.696;23.350;2022-12-07T12:03:11;95024.19;;;10.87;100.00
40708;BME280;26392;42.696;23.350;2022-12-07T12:05:40;95011.13;;;10.94;100.00
40708;BME280;26392;42.696;23.350;2022-12-07T12:08:19;95014.97;;;10.98;100.00
40708;BME280;26392;42.696;23.350;2022-12-07T12:13:50;95001.34;;;10.98;100.00
40708;BME280;26392;42.696;23.350;2022-12-07T12:16:34;95001.03;;;10.94;100.00
40708;BME280;26392;42.696;23.350;2022-12-07T12:19:41;95000.72;;;10.86;100.00
40708;BME280;26392;42.696;23.350;2022-12-07T12:22:16;94994.41;;;10.75;100.00
40708;BME280;26392;42.696;23.350;2022-12-07T12:24:45;94999.31;;;10.73;100.00
40708;BME280;26392;42.696;23.350;2022-12-07T12:27:35;94988.09;;;10.69;100.00
40708;BME280;26392;42.696;23.350;2022-12-07T12:30:05;94996.47;;;10.58;100.00
40708;BME280;26392;42.696;23.350;2022-12-07T12:32:39;94988.59;;;10.61;100.00
40708;BME280;26392;42.696;23.350;2022-12-07T12:35:32;94985.28;;;10.54;100.00
40708;BME280;26392;42.696;23.350;2022-12-07T12:38:24;94985.84;;;10.56;100.00
40708;BME280;26392;42.696;23.350;2022-12-07T12:40:50;94975.25;;;10.60;100.00
40708;BME280;26392;42.696;23.350;2022-12-07T12:43:51;94966.28;;;10.69;100.00
40708;BME280;26392;42.696;23.350;2022-12-07T12:51:46;94974.59;;;10.95;100.00
40708;BME280;26392;42.696;23.350;2022-12-07T13:01:46;94973.31;;;11.08;100.00
40708;BME280;26392;42.696;23.350;2022-12-07T13:04:59;94966.28;;;10.69;100.00
40708;BME280;26392;42.696;23.350;2022-12-07T13:15:40;94973.56;;;11.01;100.00
40708;BME280;26392;42.696;23.350;2022-12-07T13:23:51;94968.38;;;11.05;100.00
40708;BME280;26392;42.696;23.350;2022-12-07T13:26:23;94970.31;;;11.14;100.00
40708;BME280;26392;42.696;23.350;2022-12-07T13:31:41;94957.47;;;11.05;100.00
40708;BME280;26392;42.696;23.350;2022-12-07T13:36:54;94964.59;;;11.11;100.00
40708;BME280;26392;42.696;23.350;2022-12-07T13:39:21;94958.06;;;11.17;100.00
40708;BME280;26392;42.696;23.350;2022-12-07T13:42:09;94952.31;;;11.08;100.00
40708;BME280;26392;42.696;23.350;2022-12-07T13:44:40;94956.69;;;11.09;100.00
40708;BME280;26392;42.696;23.350;2022-12-07T13:47:15;94956.44;;;11.16;100.00
40708;BME280;26392;42.696;23.350;2022-12-07T13:49:56;94953.16;;;11.14;100.00
40708;BME280;26392;42.696;23.350;2022-12-07T13:52:24;94961.88;;;11.11;100.00
40708;BME280;26392;42.696;23.350;2022-12-07T13:57:25;94946.31;;;11.11;100.00
40708;BME280;26392;42.696;23.350;2022-12-07T13:59:52;94943.34;;;11.13;100.00
40708;BME280;26392;42.696;23.350;2022-12-07T14:02:27;94944.44;;;11.12;100.00
40708;BME280;26392;42.696;23.350;2022-12-07T14:05:25;94961.06;;;11.10;100.00
40708;BME280;26392;42.696;23.350;2022-12-07T14:10:31;94958.56;;;10.98;100.00
40708;BME280;26392;42.696;23.350;2022-12-07T14:12:58;94950.00;;;10.80;100.00
40708;BME280;26392;42.696;23.350;2022-12-07T14:15:27;94960.56;;;10.66;100.00
40708;BME280;26392;42.696;23.350;2022-12-07T14:17:55;94952.09;;;10.62;100.00
40708;BME280;26392;42.696;23.350;2022-12-07T14:22:59;94957.44;;;10.47;100.00
40708;BME280;26392;42.696;23.350;2022-12-07T14:25:48;94959.41;;;10.51;100.00
40708;BME280;26392;42.696;23.350;2022-12-07T14:28:34;94964.56;;;10.48;100.00
40708;BME280;26392;42.696;23.350;2022-12-07T14:31:00;94966.16;;;10.44;100.00
40708;BME280;26392;42.696;23.350;2022-12-07T14:33:26;94959.63;;;10.45;100.00
40708;BME280;26392;42.696;23.350;2022-12-07T14:35:53;94965.81;;;10.35;100.00
40708;BME280;26392;42.696;23.350;2022-12-07T14:38:21;94960.53;;;10.23;100.00
40708;BME280;26392;42.696;23.350;2022-12-07T14:40:47;94959.97;;;10.21;100.00
40708;BME280;26392;42.696;23.350;2022-12-07T14:43:15;94964.53;;;10.11;100.00
40708;BME280;26392;42.696;23.350;2022-12-07T14:45:41;94967.22;;;10.05;100.00
40708;BME280;26392;42.696;23.350;2022-12-07T14:48:15;94966.38;;;10.00;100.00
40708;BME280;26392;42.696;23.350;2022-12-07T14:50:45;94960.06;;;9.94;100.00
40708;BME280;26392;42.696;23.350;2022-12-07T14:53:19;94959.41;;;9.82;100.00
40708;BME280;26392;42.696;23.350;2022-12-07T14:55:46;94971.31;;;9.76;100.00
40708;BME280;26392;42.696;23.350;2022-12-07T14:58:16;94968.53;;;9.71;100.00
40708;BME280;26392;42.696;23.350;2022-12-07T15:00:42;94968.44;;;9.60;100.00
40708;BME280;26392;42.696;23.350;2022-12-07T15:03:08;94966.25;;;9.57;100.00
40708;BME280;26392;42.696;23.350;2022-12-07T15:05:34;94967.28;;;9.51;100.00
40708;BME280;26392;42.696;23.350;2022-12-07T15:07:59;94966.66;;;9.44;100.00